Flight Track Log - Related Links

Times and Time Zones

All times are in EDT time to prevent confusion due to time zone crossing. See the N960DL flight status page for this flight to view local times or setup timezone preferences in your user account.

Time Position Orientation Groundspeed Altitude Reporting Facility
EDT Latitude Longitude Course Direction KTS MPH feet Rate Location/Type
Thu 05:59:34 PM 42.9167 -87.9000 190° South 161 185 1,700  Level KMKE
Thu 06:00:04 PM 42.9000 -87.9167 216° Southwest 193 222 2,200 1,756 Climbing KMKE
Thu 06:00:56 PM 42.8664 -87.9858 236° Southwest 251 289 4,100 2,632 Climbing Chicago Center
Thu 06:01:58 PM 42.8186 -88.0619 229° Southwest 257 296 7,200 2,661 Climbing Chicago Center
Thu 06:02:00 PM 42.6236 -87.7594 180° South  Level Estimated
Thu 06:03:00 PM 42.5159 -87.7138 186° South  Level Estimated
Thu 06:03:00 PM 42.7567 -88.1283 218° Southwest 290 334 9,600  Level Chicago Center
Thu 06:04:00 PM 42.4080 -87.6684 180° South  Level Estimated
Thu 06:04:03 PM 42.6636 -88.1231 178° South 336 387 10,900  Level Chicago Center
Thu 06:05:00 PM 42.3002 -87.6232 190° South  Level Estimated
Thu 06:05:04 PM 42.5575 -88.1172 178° South 378 435 13,500  Level Chicago Center
Thu 06:06:06 PM 42.4261 -88.1064 177° South 402 463 15,900 2,226 Climbing Chicago Center
Thu 06:07:08 PM 42.3189 -88.0403 155° Southeast 421 484 18,100 1,887 Climbing Chicago Center
Thu 06:08:10 PM 42.2222 -87.9800 155° Southeast 431 496 19,800 1,776 Climbing Chicago Center
Thu 06:09:13 PM 42.0878 -87.8908 154° Southeast 449 517 21,800 1,632 Climbing Chicago Center
Thu 06:10:15 PM 41.9722 -87.8142 154° Southeast 463 533 23,200 1,403 Climbing Chicago Center
Thu 06:11:17 PM 41.8514 -87.7364 154° Southeast 478 550 24,700 1,645 Climbing Chicago Center
Thu 06:12:19 PM 41.7303 -87.6592 155° Southeast 481 554 26,600 1,935 Climbing Chicago Center
Thu 06:13:21 PM 41.6111 -87.5844 155° Southeast 473 544 28,700 1,597 Climbing Chicago Center
Thu 06:14:23 PM 41.4925 -87.5167 157° South 465 535 29,900 1,258 Climbing Chicago Center
Thu 06:15:25 PM 41.3381 -87.4856 171° South 467 537 31,300 1,258 Climbing Chicago Center
Thu 06:16:27 PM 41.2086 -87.4647 173° South 467 537 32,500 871 Climbing Chicago Center
Thu 06:17:29 PM 41.0803 -87.4453 173° South 463 533 33,100 677 Climbing Chicago Center
Thu 06:18:31 PM 40.9508 -87.4253 173° South 469 540 33,900 726 Climbing Chicago Center
Thu 06:19:33 PM 40.8239 -87.4042 173° South 462 532 34,600 532 Climbing Chicago Center
Thu 06:20:35 PM 40.6972 -87.3844 173° South 460 529 35,000 192 Climbing Chicago Center
Thu 06:21:38 PM 40.5456 -87.3592 173° South 459 528 35,000  Level Chicago Center
Thu 06:22:40 PM 40.4214 -87.3394 173° South 463 533 35,000  Level Chicago Center
Thu 06:23:42 PM 40.2947 -87.3194 173° South 463 533 35,000  Level Chicago Center
Thu 06:24:44 PM 40.1681 -87.2950 172° South 462 532 35,000  Level Chicago Center
Thu 06:25:22 PM 40.0917 -87.2825 173° South 460 529 35,000  Level Indianapolis Center
Thu 06:26:24 PM 39.9397 -87.2583 173° South 460 529 35,000  Level Indianapolis Center
Thu 06:27:26 PM 39.8125 -87.2372 173° South 462 532 35,000  Level Indianapolis Center
Thu 06:28:28 PM 39.6872 -87.2172 173° South 458 527 35,000  Level Indianapolis Center
Thu 06:29:30 PM 39.5606 -87.1978 173° South 460 529 35,000  Level Indianapolis Center
Thu 06:30:33 PM 39.4358 -87.1989 180° South 453 521 35,000  Level Indianapolis Center
Thu 06:31:35 PM 39.2825 -87.2075 182° South 458 527 35,000  Level Indianapolis Center
Thu 06:32:37 PM 39.1589 -87.2144 182° South 449 517 35,000  Level Indianapolis Center
Thu 06:33:39 PM 39.0425 -87.2200 182° South 456 525 35,000  Level Indianapolis Center
Thu 06:34:41 PM 38.8897 -87.2261 182° South 456 525 35,000  Level Indianapolis Center
Thu 06:35:43 PM 38.7617 -87.2100 174° South 461 531 35,000  Level Indianapolis Center
Thu 06:36:45 PM 38.6339 -87.1856 172° South 462 532 35,000  Level Indianapolis Center
Thu 06:37:47 PM 38.5069 -87.1589 171° South 462 532 35,000  Level Indianapolis Center
Thu 06:38:49 PM 38.3706 -87.1314 171° South 467 537 35,000  Level Indianapolis Center
Thu 06:39:51 PM 38.2436 -87.1033 170° South 465 535 35,000  Level Indianapolis Center
Thu 06:40:53 PM 38.1064 -87.0750 171° South 467 537 35,000  Level Indianapolis Center
Thu 06:41:55 PM 37.9775 -87.0594 175° South 465 535 35,000  Level Indianapolis Center
Thu 06:42:57 PM 37.8489 -87.0572 179° South 461 531 35,000  Level Indianapolis Center
Thu 06:43:59 PM 37.7192 -87.0536 179° South 463 533 35,000  Level Indianapolis Center
Thu 06:45:01 PM 37.5639 -87.0497 179° South 465 535 35,000  Level Indianapolis Center
Thu 06:46:03 PM 37.4311 -87.0483 180° South 463 533 35,000  Level Indianapolis Center
Thu 06:47:05 PM 37.3008 -87.0433 178° South 465 535 35,000  Level Indianapolis Center
Thu 06:48:07 PM 37.1703 -87.0322 176° South 467 537 35,000  Level Indianapolis Center
Thu 06:48:55 PM 37.0625 -87.0397 183° South 461 531 35,000  Level Memphis Center
Thu 06:49:55 PM 36.9378 -87.0553 186° South 454 522 35,000  Level Memphis Center
Thu 06:50:55 PM 36.8114 -87.0736 187° South 462 532 35,000  Level Memphis Center
Thu 06:51:55 PM 36.6867 -87.0917 187° South 462 532 35,000  Level Memphis Center
Thu 06:52:55 PM 36.5600 -87.1069 186° South 462 532 35,000  Level Memphis Center
Thu 06:53:55 PM 36.4344 -87.0942 175° South 457 526 35,000  Level Memphis Center
Thu 06:54:55 PM 36.3086 -87.0606 168° South 462 532 35,000  Level Memphis Center
Thu 06:55:55 PM 36.1978 -86.9672 146° Southeast 474 545 35,000 -100 Level Memphis Center
Thu 06:56:55 PM 36.0989 -86.8633 140° Southeast 474 545 34,800 -950 Descending Memphis Center
Thu 06:57:55 PM 35.9978 -86.7575 140° Southeast 474 545 33,100 -900 Descending Memphis Center
Thu 06:58:55 PM 35.9047 -86.6386 134° Southeast 469 540 33,000 -600 Descending Memphis Center
Thu 06:59:55 PM 35.8114 -86.5200 134° Southeast 479 551 31,900 -1,000 Descending Memphis Center
Thu 07:00:55 PM 35.7181 -86.4014 134° Southeast 486 559 31,000 -372 Descending Memphis Center
Thu 07:02:20 PM 35.5839 -86.2347 135° Southeast 492 566 31,000  Level Atlanta Center
Thu 07:03:20 PM 35.4578 -86.1753 159° South 480 552 31,000  Level Atlanta Center
Thu 07:04:20 PM 35.3247 -86.1439 169° South 476 548 31,000  Level Atlanta Center
Thu 07:05:20 PM 35.1917 -86.1203 172° South 489 563 31,000  Level Atlanta Center
Thu 07:06:20 PM 35.0564 -86.0939 171° South 489 563 31,000  Level Atlanta Center
Thu 07:07:20 PM 34.9367 -86.0175 152° Southeast 472 543 31,000  Level Atlanta Center
Thu 07:08:20 PM 34.8425 -85.8989 134° Southeast 477 549 31,000 -550 Level Atlanta Center
Thu 07:09:20 PM 34.7397 -85.7856 138° Southeast 490 564 29,900 -2,250 Descending Atlanta Center
Thu 07:10:20 PM 34.6414 -85.6697 136° Southeast 490 564 26,500 -3,050 Descending Atlanta Center
Thu 07:11:20 PM 34.5425 -85.5544 136° Southeast 490 564 23,800 -2,700 Descending Atlanta Center
Thu 07:12:20 PM 34.4500 -85.4494 137° Southeast 477 549 21,100 -2,650 Descending Atlanta Center
Thu 07:13:20 PM 34.3611 -85.3497 137° Southeast 458 527 18,500 -2,600 Descending Atlanta Center
Thu 07:14:20 PM 34.2767 -85.2556 137° Southeast 431 496 15,900 -2,550 Descending Atlanta Center
Thu 07:15:20 PM 34.1919 -85.1564 136° Southeast 421 484 13,400 -1,450 Descending Atlanta Center
Thu 07:16:20 PM 34.1239 -85.0725 134° Southeast 386 444 13,000 -350 Descending Atlanta Center
Thu 07:17:20 PM 34.0597 -84.9992 137° Southeast 332 382 12,700 -700 Descending Atlanta Center
Thu 07:18:20 PM 33.9850 -84.9533 153° Southeast 300 345 11,600 -1,400 Descending Atlanta Center
Thu 07:19:20 PM 33.9208 -84.8925 142° Southeast 300 345 9,900 -1,611 Descending Atlanta Center
Thu 07:20:08 PM 33.8667 -84.8333 138° Southeast 292 336 8,700 -1,486 Descending Atlanta TRACON
Thu 07:21:09 PM 33.8000 -84.7833 148° Southeast 287 330 7,200 -1,450 Descending Atlanta TRACON
Thu 07:22:08 PM 33.7333 -84.7667 168° South 278 320 5,800 -1,210 Descending Atlanta TRACON
Thu 07:23:08 PM 33.6833 -84.7000 132° Southeast 226 260 4,800 -1,000 Descending Atlanta TRACON

Login

Don't have an account? Register now (free) for customized features, flight alerts, and more!